Time;durP1;ratioP1;P1;durP2;ratioP2;P2;SDS_P1;SDS_P2;PMS_P1;PMS_P2;Temp;Humidity;BMP_temperature;BMP_pressure;BME280_temperature;BME280_humidity;BME280_pressure;Samples;Min_cycle;Max_cycle;Signal;HPM_P1;HPM_P2
2021/03/12 00:00:14;;;;;;;8.80;1.25;;;;;;;4.91;68.21;100716.22;352273;28;1258;-70
2021/03/12 00:00:35;;;;;;;9.73;1.98;;;;;;;4.92;68.04;100712.72;349893;28;70762;-71
2021/03/12 00:00:49;;;;;;;7.57;1.90;;;;;;;4.93;68.72;100717.06;347753;28;69874;-70
2021/03/12 00:01:00;;;;;;;8.68;1.80;;;;;;;4.92;68.25;100712.72;350792;28;1051;-71
2021/03/12 00:01:13;;;;;;;8.63;1.70;;;;;;;4.92;67.93;100719.72;350414;28;1110;-71
2021/03/12 00:01:27;;;;;;;5.90;1.38;;;;;;;4.89;67.51;100717.16;347792;28;48290;-69
2021/03/12 00:01:40;;;;;;;4.50;1.20;;;;;;;4.90;67.91;100719.78;349548;28;1057;-69
2021/03/12 00:01:52;;;;;;;7.38;1.35;;;;;;;4.89;68.43;100715.44;349444;28;1188;-70
2021/03/12 00:02:03;;;;;;;9.82;1.67;;;;;;;4.90;68.89;100709.31;350109;28;1141;-71
2021/03/12 00:02:15;;;;;;;9.05;1.67;;;;;;;4.92;68.20;100717.97;350850;28;1175;-68
2021/03/12 00:02:27;;;;;;;9.63;1.60;;;;;;;4.96;68.14;100718.75;350902;28;1156;-70
2021/03/12 00:02:39;;;;;;;9.10;1.55;;;;;;;4.98;68.36;100700.41;351150;28;1183;-71
2021/03/12 00:02:51;;;;;;;7.55;1.55;;;;;;;4.93;67.16;100709.22;352298;28;1192;-71
2021/03/12 00:03:05;;;;;;;6.30;1.50;;;;;;;4.90;68.21;100717.16;352175;28;1257;-71
2021/03/12 00:03:19;;;;;;;8.85;1.77;;;;;;;4.92;68.48;100717.97;351362;28;22833;-69
2021/03/12 00:03:34;;;;;;;11.73;1.98;;;;;;;4.99;69.51;100713.44;350007;28;23819;-70
2021/03/12 00:03:45;;;;;;;12.85;2.15;;;;;;;5.03;68.86;100714.25;348247;28;47798;-70
2021/03/12 00:03:58;;;;;;;14.15;2.20;;;;;;;5.05;69.16;100713.28;349957;28;1192;-72
2021/03/12 00:04:09;;;;;;;11.60;2.10;;;;;;;5.06;69.59;100714.16;349438;28;1069;-71
2021/03/12 00:04:20;;;;;;;9.13;1.90;;;;;;;5.06;68.42;100711.53;349193;28;1292;-71
2021/03/12 00:04:31;;;;;;;8.25;1.77;;;;;;;5.05;68.56;100715.06;348149;28;1060;-71
2021/03/12 00:04:45;;;;;;;9.45;1.80;;;;;;;5.05;68.55;100717.66;347302;28;24206;-71
2021/03/12 00:04:57;;;;;;;8.80;1.58;;;;;;;5.05;68.36;100717.66;348041;28;1102;-70
2021/03/12 00:05:12;;;;;;;6.38;1.40;;;;;;;4.92;68.00;100711.88;347988;28;1150;-71
2021/03/12 00:05:24;;;;;;;4.70;1.20;;;;;;;4.89;68.34;100711.94;348073;28;1174;-71
2021/03/12 00:05:57;;;;;;;5.05;1.20;;;;;;;4.92;67.96;100717.13;348083;28;1169;-70
2021/03/12 00:06:11;;;;;;;9.85;2.45;;;;;;;4.96;67.81;100712.66;348694;28;70881;-71
2021/03/12 00:06:25;;;;;;;10.85;2.22;;;;;;;4.97;68.24;100714.38;349951;28;70174;-71
2021/03/12 00:06:39;;;;;;;10.45;1.98;;;;;;;4.93;68.10;100710.97;351021;28;1118;-71
2021/03/12 00:06:50;;;;;;;7.97;1.80;;;;;;;4.92;67.24;100717.97;350909;28;1140;-70
2021/03/12 00:07:01;;;;;;;9.65;1.83;;;;;;;4.91;67.87;100707.53;350667;28;1101;-71
2021/03/12 00:07:13;;;;;;;9.55;1.90;;;;;;;4.88;68.51;100718.09;349483;28;1070;-71
2021/03/12 00:07:25;;;;;;;8.55;2.00;;;;;;;4.84;68.05;100712.06;348860;28;1086;-72
2021/03/12 00:07:38;;;;;;;6.47;1.90;;;;;;;4.81;68.66;100730.44;347771;28;1146;-71
2021/03/12 00:07:50;;;;;;;6.07;1.92;;;;;;;4.80;68.00;100717.41;347753;28;1075;-70
2021/03/12 00:08:02;;;;;;;6.60;1.80;;;;;;;4.78;67.74;100714.84;348030;28;1130;-70
2021/03/12 00:08:14;;;;;;;7.13;1.92;;;;;;;4.79;68.40;100724.38;348214;28;910;-70
2021/03/12 00:08:31;;;;;;;9.43;1.98;;;;;;;4.83;68.62;100722.56;346744;28;1077;-70
2021/03/12 00:08:45;;;;;;;9.48;1.52;;;;;;;4.82;69.08;100719.09;344382;28;71905;-71
2021/03/12 00:08:56;;;;;;;6.30;1.10;;;;;;;4.82;68.95;100711.25;345846;28;25107;-72
2021/03/12 00:09:16;;;;;;;8.90;1.60;;;;;;;4.88;68.44;100708.47;345700;28;70864;-71
2021/03/12 00:09:27;;;;;;;12.85;1.92;;;;;;;4.90;68.83;100704.06;348109;28;1085;-70
2021/03/12 00:09:38;;;;;;;13.90;2.20;;;;;;;4.93;67.41;100706.59;350875;28;1181;-71
2021/03/12 00:09:49;;;;;;;12.25;2.20;;;;;;;4.96;68.80;100704.78;350756;28;1408;-71
2021/03/12 00:10:01;;;;;;;11.45;2.33;;;;;;;4.95;68.19;100716.19;350934;28;1068;-70
2021/03/12 00:10:16;;;;;;;8.57;1.80;;;;;;;4.92;68.21;100711.88;350853;28;1189;-71
2021/03/12 00:10:27;;;;;;;6.80;1.50;;;;;;;4.91;68.21;100718.84;350046;28;23684;-71
2021/03/12 00:10:39;;;;;;;7.80;1.77;;;;;;;4.95;67.88;100708.34;350950;28;1112;-70
2021/03/12 00:10:51;;;;;;;9.32;2.15;;;;;;;4.99;68.34;100712.59;350757;28;1065;-71
2021/03/12 00:11:03;;;;;;;10.00;2.15;;;;;;;4.95;68.06;100716.19;350814;28;1125;-71
2021/03/12 00:11:15;;;;;;;8.43;1.85;;;;;;;4.89;68.48;100720.66;350908;28;1152;-71
2021/03/12 00:11:26;;;;;;;6.85;1.55;;;;;;;4.88;68.41;100708.47;350889;28;1066;-71
2021/03/12 00:11:37;;;;;;;6.50;1.67;;;;;;;4.89;67.89;100718.03;351807;28;1125;-71
2021/03/12 00:11:48;;;;;;;9.60;2.00;;;;;;;4.92;67.86;100717.13;353288;27;1164;-71
2021/03/12 00:11:59;;;;;;;9.40;1.77;;;;;;;4.92;67.84;100712.72;353780;27;1135;-69
2021/03/12 00:12:11;;;;;;;8.88;1.60;;;;;;;4.90;68.14;100718.91;353845;27;1166;-70
2021/03/12 00:12:22;;;;;;;9.95;1.85;;;;;;;4.90;68.61;100704.06;353783;27;1041;-71
2021/03/12 00:12:33;;;;;;;9.27;1.90;;;;;;;4.87;67.12;100718.97;353702;27;1212;-71
2021/03/12 00:12:45;;;;;;;8.07;1.73;;;;;;;4.85;68.00;100711.16;353824;27;1170;-71
2021/03/12 00:12:56;;;;;;;7.93;1.70;;;;;;;4.90;68.93;100717.16;353799;27;1235;-71
2021/03/12 00:13:08;;;;;;;9.07;1.75;;;;;;;4.93;67.63;100711.84;353705;27;1043;-71
2021/03/12 00:13:20;;;;;;;9.43;1.73;;;;;;;4.98;68.07;100721.34;353779;27;1056;-69
2021/03/12 00:13:31;;;;;;;8.65;1.70;;;;;;;4.99;69.02;100717.84;353701;27;1174;-70
2021/03/12 00:13:42;;;;;;;9.04;1.76;;;;;;;5.01;68.13;100708.16;353745;27;1133;-71
2021/03/12 00:13:53;;;;;;;11.18;1.70;;;;;;;4.99;67.45;100712.59;353823;27;1154;-70
2021/03/12 00:14:04;;;;;;;11.88;1.80;;;;;;;5.02;66.98;100718.59;353776;27;1071;-70
2021/03/12 00:14:16;;;;;;;11.05;1.80;;;;;;;5.05;68.95;100722.91;353808;27;1025;-71
2021/03/12 00:14:27;;;;;;;8.95;1.80;;;;;;;5.08;68.57;100714.97;352161;28;1164;-71
2021/03/12 00:14:38;;;;;;;8.77;1.63;;;;;;;5.12;68.74;100721.00;352229;28;1049;-71
2021/03/12 00:14:49;;;;;;;9.25;1.60;;;;;;;5.13;68.20;100723.56;352424;28;1062;-71
2021/03/12 00:15:00;;;;;;;9.02;1.63;;;;;;;5.16;67.89;100726.09;352236;28;1134;-71
2021/03/12 00:15:17;;;;;;;8.38;1.77;;;;;;;5.11;67.86;100720.16;350878;28;1080;-70
2021/03/12 00:15:29;;;;;;;7.53;1.60;;;;;;;5.09;67.90;100722.78;348265;28;71816;-70
2021/03/12 00:15:40;;;;;;;8.40;1.58;;;;;;;5.05;67.28;100718.50;350938;28;1076;-71
2021/03/12 00:15:52;;;;;;;7.00;1.60;;;;;;;5.06;68.40;100715.00;349475;28;1179;-70
2021/03/12 00:16:05;;;;;;;7.00;1.60;;;;;;;5.03;67.22;100715.09;349508;28;1073;-71
2021/03/12 00:16:16;;;;;;;9.45;1.88;;;;;;;5.06;67.64;100725.47;349356;28;1102;-70
2021/03/12 00:16:27;;;;;;;10.90;2.05;;;;;;;5.08;67.23;100728.06;350600;28;1143;-70
2021/03/12 00:16:39;;;;;;;9.48;1.92;;;;;;;5.15;67.84;100721.78;350878;28;1145;-71
2021/03/12 00:16:50;;;;;;;10.57;1.80;;;;;;;5.19;68.40;100720.81;350813;28;1038;-71
2021/03/12 00:17:01;;;;;;;9.20;1.77;;;;;;;5.20;67.07;100714.66;350914;28;1096;-71
2021/03/12 00:17:13;;;;;;;9.98;1.70;;;;;;;5.16;66.90;100717.41;352106;28;1094;-70
2021/03/12 00:17:24;;;;;;;10.20;1.65;;;;;;;5.14;68.23;100717.44;352268;28;1081;-71
2021/03/12 00:17:35;;;;;;;8.57;1.63;;;;;;;5.09;67.36;100716.69;352254;28;1077;-71
2021/03/12 00:17:49;;;;;;;8.20;1.80;;;;;;;5.11;67.48;100722.75;352985;27;1075;-71
2021/03/12 00:18:00;;;;;;;7.38;1.60;;;;;;;5.13;66.99;100725.34;353013;27;24127;-71
2021/03/12 00:18:12;;;;;;;7.15;1.65;;;;;;;5.18;67.37;100724.31;353725;27;1073;-71
2021/03/12 00:18:38;;;;;;;7.05;1.75;;;;;;;5.23;67.88;100717.22;353758;27;1113;-70
2021/03/12 00:18:50;;;;;;;7.50;1.83;;;;;;;5.29;67.93;100716.19;351368;27;71344;-70
2021/03/12 00:19:01;;;;;;;8.66;1.86;;;;;;;5.28;67.33;100718.88;353756;27;1009;-70
2021/03/12 00:19:12;;;;;;;10.10;1.85;;;;;;;5.28;66.74;100718.88;353603;27;1130;-71
2021/03/12 00:19:23;;;;;;;11.27;1.80;;;;;;;5.25;66.30;100720.66;353779;27;1135;-71
2021/03/12 00:19:34;;;;;;;11.13;1.80;;;;;;;5.28;67.14;100721.47;353779;27;1178;-71
2021/03/12 00:19:45;;;;;;;10.82;1.95;;;;;;;5.28;67.59;100732.81;353770;27;1220;-70
2021/03/12 00:19:56;;;;;;;10.27;1.92;;;;;;;5.31;67.11;100727.47;353815;27;1146;-70
2021/03/12 00:20:14;;;;;;;11.52;2.00;;;;;;;5.27;67.38;100723.22;353734;28;1061;-70
2021/03/12 00:20:30;;;;;;;10.05;1.85;;;;;;;5.26;66.54;100732.84;351356;27;71963;-71
2021/03/12 00:20:41;;;;;;;8.80;1.83;;;;;;;5.31;67.38;100729.25;351369;27;70764;-70
2021/03/12 00:20:52;;;;;;;8.25;1.92;;;;;;;5.35;68.39;100723.03;353829;27;1092;-70
2021/03/12 00:21:04;;;;;;;7.22;1.73;;;;;;;5.34;66.51;100724.78;353675;27;1033;-71
2021/03/12 00:21:15;;;;;;;6.47;1.73;;;;;;;5.29;67.84;100721.44;353810;27;1172;-70
2021/03/12 00:21:26;;;;;;;6.00;1.73;;;;;;;5.26;66.21;100722.38;352346;28;1179;-71
2021/03/12 00:21:38;;;;;;;8.13;1.98;;;;;;;5.28;66.99;100724.94;352223;28;1072;-71
2021/03/12 00:21:49;;;;;;;8.98;1.95;;;;;;;5.34;68.66;100730.00;350896;28;1133;-70
2021/03/12 00:22:00;;;;;;;9.35;1.98;;;;;;;5.31;67.53;100721.41;350743;28;1128;-71
2021/03/12 00:22:11;;;;;;;8.63;1.83;;;;;;;5.28;66.16;100726.72;350862;28;1093;-69
2021/03/12 00:22:22;;;;;;;9.25;1.92;;;;;;;5.25;67.71;100730.28;350877;28;1077;-70
2021/03/12 00:22:34;;;;;;;9.20;2.00;;;;;;;5.28;66.78;100719.72;350845;28;1292;-71
2021/03/12 00:22:45;;;;;;;8.13;1.92;;;;;;;5.28;66.91;100721.47;350833;28;1141;-70
2021/03/12 00:22:56;;;;;;;9.23;2.03;;;;;;;5.24;66.14;100713.69;350711;28;1197;-69
2021/03/12 00:23:08;;;;;;;8.80;2.00;;;;;;;5.28;66.84;100724.09;350821;28;1168;-71
2021/03/12 00:23:19;;;;;;;9.52;1.92;;;;;;;5.29;67.87;100726.69;351026;28;1029;-70
2021/03/12 00:23:30;;;;;;;8.95;1.98;;;;;;;5.24;67.04;100716.31;352284;28;1061;-71
2021/03/12 00:23:43;;;;;;;7.88;1.55;;;;;;;5.16;67.05;100725.25;352373;28;1161;-71
2021/03/12 00:23:55;;;;;;;7.47;1.55;;;;;;;5.15;67.22;100726.16;353638;27;1887;-70
2021/03/12 00:24:07;;;;;;;7.28;1.67;;;;;;;5.18;66.87;100726.06;353793;27;1136;-71
2021/03/12 00:24:18;;;;;;;9.05;2.10;;;;;;;5.16;66.73;100720.03;353827;27;1052;-71
2021/03/12 00:24:29;;;;;;;9.55;2.05;;;;;;;5.13;66.73;100731.44;353762;27;1524;-70
2021/03/12 00:24:40;;;;;;;8.90;1.80;;;;;;;5.14;66.73;100721.81;353721;27;1138;-70
2021/03/12 00:24:52;;;;;;;9.00;1.80;;;;;;;5.15;67.17;100724.41;352254;28;1068;-70
2021/03/12 00:25:07;;;;;;;7.75;1.63;;;;;;;5.19;67.67;100722.56;352308;28;1156;-70
2021/03/12 00:25:45;;;;;;;9.05;1.73;;;;;;;5.09;67.16;100722.78;350642;28;48292;-71
2021/03/12 00:25:57;;;;;;;8.80;1.75;;;;;;;5.14;68.12;100725.31;347352;28;70536;-70
2021/03/12 00:26:08;;;;;;;10.35;2.00;;;;;;;5.17;68.27;100722.59;352249;28;1325;-71
2021/03/12 00:26:19;;;;;;;10.36;1.90;;;;;;;5.18;66.97;100726.06;352270;28;1166;-71
2021/03/12 00:26:30;;;;;;;7.93;1.60;;;;;;;5.10;67.04;100727.13;352241;28;1117;-71
2021/03/12 00:26:42;;;;;;;7.90;1.58;;;;;;;5.08;67.31;100726.31;352112;28;1189;-71
2021/03/12 00:26:58;;;;;;;7.22;1.65;;;;;;;5.04;66.99;100716.81;353730;27;1036;-71
2021/03/12 00:27:09;;;;;;;8.35;1.60;;;;;;;5.00;68.13;100715.19;351356;27;71159;-71
2021/03/12 00:27:20;;;;;;;8.02;1.50;;;;;;;4.97;66.88;100723.06;353898;27;1102;-70
2021/03/12 00:27:32;;;;;;;10.52;1.77;;;;;;;4.96;67.38;100717.88;353749;27;1157;-70
2021/03/12 00:27:46;;;;;;;10.50;1.63;;;;;;;4.96;67.96;100728.34;352883;27;24169;-71
2021/03/12 00:27:57;;;;;;;10.52;1.70;;;;;;;4.97;68.31;100717.00;353836;27;1073;-70
2021/03/12 00:28:09;;;;;;;11.77;1.80;;;;;;;5.01;66.78;100721.25;353631;27;1206;-71
2021/03/12 00:28:20;;;;;;;14.32;2.13;;;;;;;5.02;68.06;100723.84;353807;27;1053;-71
2021/03/12 00:28:31;;;;;;;12.75;2.20;;;;;;;5.03;66.85;100725.56;353636;27;1114;-70
2021/03/12 00:28:43;;;;;;;10.93;1.98;;;;;;;5.02;67.61;100725.59;353693;28;3107;-71
2021/03/12 00:28:54;;;;;;;10.02;1.95;;;;;;;5.02;67.89;100725.59;353740;27;1361;-70
2021/03/12 00:29:05;;;;;;;9.25;2.00;;;;;;;5.02;66.51;100729.06;353794;27;1017;-72
2021/03/12 00:29:16;;;;;;;9.25;2.22;;;;;;;5.01;67.04;100729.97;352232;28;1077;-71
2021/03/12 00:29:27;;;;;;;8.20;2.05;;;;;;;4.97;67.67;100725.69;352182;28;1076;-71
2021/03/12 00:29:38;;;;;;;8.80;1.98;;;;;;;4.97;68.43;100730.06;352244;28;1172;-72
2021/03/12 00:29:49;;;;;;;8.66;1.60;;;;;;;4.96;66.87;100726.63;352215;28;1175;-69
2021/03/12 00:30:03;;;;;;;10.15;2.03;;;;;;;4.93;67.64;100724.94;352258;28;1084;-70
2021/03/12 00:30:15;;;;;;;9.40;2.08;;;;;;;4.92;67.78;100746.75;351523;28;22729;-71
2021/03/12 00:30:26;;;;;;;8.48;1.90;;;;;;;4.89;68.40;100727.63;352167;28;1197;-71
2021/03/12 00:30:38;;;;;;;9.60;1.77;;;;;;;4.88;67.72;100734.63;352249;28;1134;-71
2021/03/12 00:30:49;;;;;;;9.07;1.70;;;;;;;4.90;68.56;100725.00;352237;28;1131;-70
2021/03/12 00:31:02;;;;;;;8.18;1.60;;;;;;;4.91;68.45;100731.94;352288;28;1064;-71
2021/03/12 00:31:15;;;;;;;7.65;1.60;;;;;;;4.96;68.13;100733.59;352991;27;1394;-71
2021/03/12 00:31:26;;;;;;;9.90;1.92;;;;;;;4.94;67.23;100725.78;353735;27;1109;-72
2021/03/12 00:31:37;;;;;;;9.80;1.73;;;;;;;4.90;67.51;100732.84;353752;27;1193;-70
2021/03/12 00:31:49;;;;;;;9.02;1.60;;;;;;;4.89;68.20;100725.91;353739;27;1101;-71
2021/03/12 00:32:00;;;;;;;7.03;1.45;;;;;;;4.87;68.08;100724.22;353626;27;1102;-71
2021/03/12 00:32:11;;;;;;;7.25;1.60;;;;;;;4.86;67.49;100728.59;353721;27;1076;-71
2021/03/12 00:32:22;;;;;;;8.65;1.60;;;;;;;4.88;67.82;100720.69;353771;27;1171;-71
2021/03/12 00:32:34;;;;;;;9.13;1.63;;;;;;;4.88;67.51;100728.56;353827;27;1084;-71
2021/03/12 00:32:45;;;;;;;10.40;1.85;;;;;;;4.86;67.53;100715.50;353727;27;1157;-70
2021/03/12 00:32:57;;;;;;;12.15;1.90;;;;;;;4.89;68.15;100733.75;353753;27;1064;-71
2021/03/12 00:33:09;;;;;;;12.70;2.20;;;;;;;4.92;68.24;100735.44;353645;27;1144;-71
2021/03/12 00:33:23;;;;;;;10.07;2.08;;;;;;;4.91;68.41;100731.94;353865;27;1090;-71
2021/03/12 00:33:34;;;;;;;9.40;1.90;;;;;;;4.93;67.80;100724.94;352991;28;24678;-71
2021/03/12 00:33:45;;;;;;;9.32;1.80;;;;;;;4.91;68.18;100731.94;353736;27;1189;-70
2021/03/12 00:33:56;;;;;;;8.48;1.83;;;;;;;4.89;67.38;100733.75;353764;27;1142;-71
2021/03/12 00:34:08;;;;;;;8.48;1.92;;;;;;;4.89;68.00;100731.13;352113;28;1212;-70
2021/03/12 00:34:19;;;;;;;7.40;2.10;;;;;;;4.92;68.20;100732.81;350870;28;1090;-71
2021/03/12 00:34:30;;;;;;;9.85;2.30;;;;;;;4.93;68.29;100730.16;349487;28;1097;-71
2021/03/12 00:34:41;;;;;;;10.77;2.42;;;;;;;4.95;67.85;100724.03;349408;28;1913;-71
2021/03/12 00:34:52;;;;;;;10.93;2.22;;;;;;;4.96;68.37;100726.63;349483;28;1151;-72
2021/03/12 00:35:05;;;;;;;10.13;2.35;;;;;;;4.98;68.42;100734.44;349344;28;1111;-70
2021/03/12 00:35:17;;;;;;;11.77;2.45;;;;;;;5.00;68.90;100730.00;349435;28;1199;-71
2021/03/12 00:35:29;;;;;;;12.77;2.40;;;;;;;5.01;67.31;100726.50;349547;28;1113;-71
2021/03/12 00:35:42;;;;;;;13.04;2.36;;;;;;;5.03;67.96;100728.19;349455;28;1138;-71
2021/03/12 00:35:53;;;;;;;14.85;2.40;;;;;;;5.03;67.68;100729.94;349327;28;1144;-70
2021/03/12 00:36:05;;;;;;;15.20;2.40;;;;;;;5.01;68.49;100731.72;350071;28;1114;-71
2021/03/12 00:36:16;;;;;;;14.15;2.40;;;;;;;5.01;67.30;100729.09;351628;28;1570;-71
2021/03/12 00:36:27;;;;;;;12.02;2.17;;;;;;;4.98;68.32;100737.03;353156;27;1159;-71
2021/03/12 00:36:38;;;;;;;10.06;1.72;;;;;;;4.92;67.20;100723.19;353790;27;1142;-71
2021/03/12 00:36:49;;;;;;;9.13;1.38;;;;;;;4.91;67.13;100725.84;353728;27;1024;-70
2021/03/12 00:37:00;;;;;;;6.82;1.13;;;;;;;4.92;67.48;100723.19;353691;27;1057;-71
2021/03/12 00:37:11;;;;;;;6.97;1.42;;;;;;;4.92;67.68;100727.59;353714;27;1084;-70
2021/03/12 00:37:22;;;;;;;7.97;1.65;;;;;;;4.92;67.31;100725.81;353624;28;1020;-71
2021/03/12 00:37:35;;;;;;;8.52;1.73;;;;;;;4.96;67.86;100734.47;353618;28;1088;-71
2021/03/12 00:37:46;;;;;;;8.05;1.50;;;;;;;4.93;68.50;100727.53;353611;28;1151;-71
2021/03/12 00:37:57;;;;;;;8.77;1.60;;;;;;;4.91;67.03;100726.69;353769;27;1168;-71
2021/03/12 00:38:09;;;;;;;10.00;1.70;;;;;;;4.90;68.47;100730.25;353782;27;1020;-71
2021/03/12 00:38:21;;;;;;;10.13;1.75;;;;;;;4.89;67.36;100718.03;353768;27;1224;-70
2021/03/12 00:38:32;;;;;;;9.48;1.73;;;;;;;4.90;68.23;100719.78;352312;28;1139;-72
2021/03/12 00:38:43;;;;;;;8.95;1.63;;;;;;;4.91;68.53;100716.22;352162;28;1151;-71
2021/03/12 00:38:54;;;;;;;9.07;1.80;;;;;;;4.95;67.44;100724.03;350789;28;1097;-71
2021/03/12 00:39:05;;;;;;;8.27;1.80;;;;;;;4.98;68.21;100726.56;349521;28;1098;-71
2021/03/12 00:39:16;;;;;;;10.20;1.85;;;;;;;4.95;67.82;100730.13;349421;28;1085;-71
2021/03/12 00:39:46;;;;;;;7.55;1.42;;;;;;;4.87;67.87;100735.53;346989;28;71300;-71
2021/03/12 00:39:58;;;;;;;7.38;1.58;;;;;;;4.87;67.89;100725.06;349437;28;1137;-71
2021/03/12 00:40:14;;;;;;;9.68;1.90;;;;;;;4.85;67.53;100726.00;349352;28;2020;-70
2021/03/12 00:40:30;;;;;;;7.40;1.58;;;;;;;4.84;66.84;100725.13;347385;28;71730;-71
2021/03/12 00:40:52;;;;;;;6.57;1.20;;;;;;;4.82;67.64;100729.56;346956;28;72164;-71
2021/03/12 00:41:06;;;;;;;7.88;1.30;;;;;;;4.82;67.57;100742.66;347973;28;71383;-70
2021/03/12 00:41:18;;;;;;;8.13;1.65;;;;;;;4.80;68.50;100738.34;349145;28;49075;-70
2021/03/12 00:41:29;;;;;;;8.55;2.17;;;;;;;4.79;68.49;100734.00;350793;28;1302;-70
2021/03/12 00:41:40;;;;;;;8.98;2.25;;;;;;;4.81;67.57;100724.34;350886;28;1088;-71
2021/03/12 00:41:52;;;;;;;9.43;2.15;;;;;;;4.86;68.24;100743.41;350827;28;1122;-70
2021/03/12 00:42:04;;;;;;;8.88;2.00;;;;;;;4.83;67.65;100718.19;350931;28;1082;-71
2021/03/12 00:42:17;;;;;;;8.05;1.80;;;;;;;4.83;68.58;100736.50;349971;28;24146;-71
2021/03/12 00:42:28;;;;;;;7.90;1.77;;;;;;;4.84;68.67;100727.75;350780;28;1164;-71
2021/03/12 00:42:40;;;;;;;10.40;1.80;;;;;;;4.82;68.29;100726.06;351862;28;1156;-71
2021/03/12 00:42:52;;;;;;;12.13;2.00;;;;;;;4.83;67.82;100731.25;352210;28;1082;-70
2021/03/12 00:43:03;;;;;;;9.93;1.65;;;;;;;4.83;67.09;100733.03;353422;27;1077;-71
2021/03/12 00:43:15;;;;;;;9.15;1.73;;;;;;;4.84;66.97;100727.75;353707;27;1175;-70
2021/03/12 00:43:27;;;;;;;7.70;1.48;;;;;;;4.86;67.80;100739.06;353659;27;1113;-70
2021/03/12 00:43:38;;;;;;;7.70;1.60;;;;;;;4.87;67.26;100739.91;353767;27;1182;-71
2021/03/12 00:43:49;;;;;;;6.82;1.52;;;;;;;4.88;67.83;100737.25;353733;27;950;-71
2021/03/12 00:44:00;;;;;;;8.88;1.63;;;;;;;4.87;67.76;100726.81;353788;27;1120;-71
2021/03/12 00:44:12;;;;;;;9.25;1.60;;;;;;;4.86;68.44;100739.06;352266;28;1130;-71
2021/03/12 00:44:25;;;;;;;12.75;1.92;;;;;;;4.86;67.34;100728.59;352197;28;1072;-70
2021/03/12 00:44:36;;;;;;;11.40;1.77;;;;;;;4.84;67.56;100740.84;352255;28;1064;-71
2021/03/12 00:44:47;;;;;;;7.55;1.25;;;;;;;4.81;68.81;100729.56;352325;28;797;-71
2021/03/12 00:44:59;;;;;;;7.60;1.42;;;;;;;4.86;68.19;100733.81;352215;28;1101;-70
2021/03/12 00:45:14;;;;;;;10.75;1.90;;;;;;;4.91;69.10;100738.94;350788;28;1836;-72
2021/03/12 00:45:27;;;;;;;11.88;2.15;;;;;;;4.96;69.05;100744.94;347807;28;48288;-71
2021/03/12 00:45:41;;;;;;;11.60;2.25;;;;;;;4.95;68.04;100734.50;348677;28;23943;-71
2021/03/12 00:46:02;;;;;;;12.75;2.10;;;;;;;4.93;68.11;100743.25;348620;28;25660;-70
2021/03/12 00:46:13;;;;;;;11.98;1.90;;;;;;;4.90;67.61;100743.34;348365;28;71464;-72
2021/03/12 00:46:25;;;;;;;9.93;1.77;;;;;;;4.86;67.53;100733.81;350795;28;1156;-71
2021/03/12 00:46:36;;;;;;;9.20;1.73;;;;;;;4.84;67.79;100732.13;350904;28;1278;-71
2021/03/12 00:46:48;;;;;;;10.13;1.98;;;;;;;4.83;67.37;100728.66;350835;28;1099;-71
2021/03/12 00:46:59;;;;;;;10.18;2.00;;;;;;;4.85;67.71;100742.56;350865;28;1101;-70
2021/03/12 00:47:11;;;;;;;11.40;1.95;;;;;;;4.88;67.65;100750.34;351917;28;1148;-69
2021/03/12 00:47:22;;;;;;;11.30;1.83;;;;;;;4.91;67.44;100736.31;353029;27;1076;-70
2021/03/12 00:47:34;;;;;;;11.52;1.90;;;;;;;4.92;67.33;100738.06;353786;27;1101;-72
2021/03/12 00:47:46;;;;;;;11.73;1.90;;;;;;;4.95;68.49;100743.22;353759;27;1163;-71
2021/03/12 00:47:57;;;;;;;11.15;2.08;;;;;;;4.96;68.55;100736.19;353784;27;1072;-71
2021/03/12 00:48:09;;;;;;;10.38;2.28;;;;;;;4.93;67.90;100738.00;353649;27;1010;-71
2021/03/12 00:48:21;;;;;;;9.10;2.10;;;;;;;4.91;67.31;100744.19;353822;27;1144;-71
2021/03/12 00:48:32;;;;;;;9.88;2.03;;;;;;;4.89;67.99;100744.22;353706;27;1133;-72
2021/03/12 00:48:44;;;;;;;9.10;1.77;;;;;;;4.90;68.17;100745.94;353756;27;1208;-72
2021/03/12 00:48:55;;;;;;;8.40;1.42;;;;;;;4.88;68.51;100745.09;353781;27;1132;-69
2021/03/12 00:49:06;;;;;;;8.80;1.77;;;;;;;4.88;67.49;100739.03;353703;27;1096;-71
2021/03/12 00:49:18;;;;;;;12.94;2.14;;;;;;;4.91;67.85;100745.03;353692;27;1113;-71
2021/03/12 00:49:29;;;;;;;16.15;2.40;;;;;;;4.92;67.57;100741.53;353759;27;1092;-71
2021/03/12 00:49:40;;;;;;;14.38;2.28;;;;;;;4.88;66.85;100739.88;353810;27;1160;-71
2021/03/12 00:49:51;;;;;;;11.38;2.10;;;;;;;4.91;66.92;100726.69;353733;27;1068;-70
2021/03/12 00:50:04;;;;;;;12.32;2.05;;;;;;;4.91;67.47;100736.31;353674;27;1072;-71
2021/03/12 00:50:22;;;;;;;11.60;1.85;;;;;;;4.88;68.18;100737.25;353746;27;1096;-71
2021/03/12 00:50:35;;;;;;;7.63;1.50;;;;;;;4.87;67.91;100734.69;351316;27;71635;-71
2021/03/12 00:50:46;;;;;;;10.18;1.85;;;;;;;4.87;66.62;100732.91;352283;28;1094;-70
2021/03/12 00:50:58;;;;;;;11.25;1.92;;;;;;;4.88;68.57;100739.88;352157;28;1028;-72
2021/03/12 00:51:09;;;;;;;11.77;1.98;;;;;;;4.89;67.58;100738.97;352195;28;1049;-71
2021/03/12 00:51:20;;;;;;;11.88;2.10;;;;;;;4.91;67.41;100736.31;352236;28;1088;-71
2021/03/12 00:51:31;;;;;;;12.35;2.40;;;;;;;4.95;68.03;100734.50;352250;28;1139;-70
2021/03/12 00:51:42;;;;;;;13.30;2.40;;;;;;;4.97;67.79;100732.69;352205;28;1077;-72
2021/03/12 00:51:54;;;;;;;12.48;2.30;;;;;;;4.98;69.12;100737.88;352220;28;1155;-70
2021/03/12 00:52:05;;;;;;;13.18;2.17;;;;;;;4.98;67.82;100732.66;352166;28;1143;-72
2021/03/12 00:52:16;;;;;;;11.57;2.05;;;;;;;4.98;68.30;100743.13;352188;28;1244;-71
2021/03/12 00:52:27;;;;;;;10.57;2.08;;;;;;;5.00;68.16;100745.72;350788;28;1134;-70
2021/03/12 00:52:42;;;;;;;9.73;2.15;;;;;;;4.99;67.54;100744.84;349692;28;48026;-70
2021/03/12 00:52:53;;;;;;;10.15;1.75;;;;;;;4.93;68.16;100745.88;352237;28;1114;-69
2021/03/12 00:53:05;;;;;;;8.02;1.48;;;;;;;4.89;68.19;100738.97;350728;28;1220;-71
2021/03/12 00:53:16;;;;;;;7.25;1.58;;;;;;;4.92;67.56;100744.13;350808;28;1195;-70
2021/03/12 00:53:27;;;;;;;8.85;2.00;;;;;;;4.91;68.05;100736.31;350813;28;1106;-70
2021/03/12 00:53:38;;;;;;;11.30;2.30;;;;;;;4.95;68.18;100747.59;350720;28;1073;-70
2021/03/12 00:53:49;;;;;;;13.52;2.30;;;;;;;4.95;67.49;100744.97;350853;28;1184;-71
2021/03/12 00:54:01;;;;;;;14.13;2.40;;;;;;;4.94;67.82;100736.25;350862;28;1121;-70
2021/03/12 00:54:12;;;;;;;12.27;2.22;;;;;;;4.91;67.37;100742.41;350859;28;1136;-71
2021/03/12 00:54:23;;;;;;;9.57;2.05;;;;;;;4.90;66.72;100743.34;350849;28;1076;-69
2021/03/12 00:54:34;;;;;;;9.13;1.92;;;;;;;4.90;67.56;100751.19;350802;28;1069;-70
2021/03/12 00:54:45;;;;;;;9.75;1.83;;;;;;;4.86;67.08;100746.03;350763;28;1174;-70
2021/03/12 00:54:57;;;;;;;10.98;2.00;;;;;;;4.82;66.79;100740.03;351092;28;1301;-71
2021/03/12 00:55:09;;;;;;;11.52;1.80;;;;;;;4.84;68.46;100751.31;352159;28;1125;-71
2021/03/12 00:55:21;;;;;;;10.45;1.75;;;;;;;4.84;68.47;100743.47;350782;28;1092;-70
2021/03/12 00:55:34;;;;;;;10.98;1.95;;;;;;;4.84;67.64;100742.59;350690;28;998;-71
2021/03/12 00:55:46;;;;;;;10.93;2.05;;;;;;;4.84;67.80;100738.22;350870;28;1159;-71
2021/03/12 00:55:57;;;;;;;10.18;2.03;;;;;;;4.84;66.84;100745.22;351445;28;1159;-71
2021/03/12 00:56:08;;;;;;;9.45;2.17;;;;;;;4.77;66.85;100741.88;352202;28;1016;-72
2021/03/12 00:56:19;;;;;;;12.15;2.20;;;;;;;4.78;67.39;100735.75;352261;28;1128;-71
2021/03/12 00:56:30;;;;;;;13.25;2.22;;;;;;;4.81;67.39;100743.53;352164;28;1172;-72
2021/03/12 00:56:41;;;;;;;12.45;2.08;;;;;;;4.81;68.60;100740.91;352215;28;1088;-70
2021/03/12 00:56:52;;;;;;;9.52;1.70;;;;;;;4.80;66.92;100741.81;352209;28;1239;-70
2021/03/12 00:57:04;;;;;;;7.82;1.58;;;;;;;4.77;68.31;100752.34;352170;28;1309;-71
2021/03/12 00:57:15;;;;;;;7.80;1.88;;;;;;;4.81;68.30;100751.38;352637;27;1117;-71
2021/03/12 00:57:26;;;;;;;10.10;2.12;;;;;;;4.83;69.11;100743.50;353623;27;1456;-70
2021/03/12 00:57:37;;;;;;;11.45;2.17;;;;;;;4.85;68.50;100747.81;353738;28;1160;-69
2021/03/12 00:57:49;;;;;;;12.40;2.28;;;;;;;4.87;68.57;100746.00;353704;28;1183;-70
2021/03/12 00:58:00;;;;;;;12.38;2.38;;;;;;;4.91;68.66;100747.66;353750;27;1017;-72
2021/03/12 00:58:12;;;;;;;13.35;2.40;;;;;;;4.91;68.59;100750.25;353690;27;1168;-71
2021/03/12 00:58:25;;;;;;;13.52;2.30;;;;;;;4.89;68.58;100745.97;353605;27;1064;-68
2021/03/12 00:58:36;;;;;;;13.90;2.45;;;;;;;4.91;67.78;100745.03;353718;27;1121;-70
2021/03/12 00:58:47;;;;;;;12.77;2.47;;;;;;;4.87;68.39;100746.00;353738;28;1069;-71